Time;durP1;ratioP1;P1;durP2;ratioP2;P2;SDS_P1;SDS_P2;PMS_P1;PMS_P2;Temp;Humidity;BMP_temperature;BMP_pressure;BME280_temperature;BME280_humidity;BME280_pressure;Samples;Min_cycle;Max_cycle;Signal;HPM_P1;HPM_P2
2023/03/04 00:01:13;;;;;;;13.25;5.53;;;6.50;99.90;;;;;;5095383;28;20663;-61
2023/03/04 00:03:39;;;;;;;11.45;5.65;;;6.50;99.90;;;;;;5095324;28;20181;-61
2023/03/04 00:06:06;;;;;;;9.73;5.43;;;6.50;99.90;;;;;;5095340;28;20189;-61
2023/03/04 00:08:31;;;;;;;13.38;5.47;;;6.60;99.90;;;;;;5095067;28;20659;-61
2023/03/04 00:10:57;;;;;;;12.10;4.93;;;6.60;99.90;;;;;;5095173;28;20266;-61
2023/03/04 00:13:23;;;;;;;14.82;5.90;;;6.60;99.90;;;;;;5095061;28;20174;-61
2023/03/04 00:15:49;;;;;;;14.35;4.97;;;6.50;99.90;;;;;;5095007;28;20178;-61
2023/03/04 00:18:15;;;;;;;12.98;5.28;;;6.60;99.90;;;;;;5094928;28;20190;-61
2023/03/04 00:20:41;;;;;;;13.07;5.03;;;6.60;99.90;;;;;;5093724;28;20231;-61
2023/03/04 00:23:06;;;;;;;11.70;5.00;;;6.60;99.90;;;;;;5095004;28;20256;-62
2023/03/04 00:25:32;;;;;;;17.17;5.88;;;6.50;99.90;;;;;;5095018;28;20175;-61
2023/03/04 00:27:59;;;;;;;11.65;4.90;;;6.50;99.90;;;;;;5095030;28;20178;-61
2023/03/04 00:30:24;;;;;;;15.13;5.45;;;6.50;99.90;;;;;;5094968;28;20170;-61
2023/03/04 00:32:50;;;;;;;15.73;6.03;;;6.50;99.90;;;;;;5094808;28;20174;-61
2023/03/04 00:35:16;;;;;;;13.40;5.28;;;6.50;99.90;;;;;;5094715;28;20603;-61
2023/03/04 00:37:41;;;;;;;13.60;5.07;;;6.50;99.90;;;;;;5094427;28;20246;-61
2023/03/04 00:40:08;;;;;;;16.35;5.45;;;6.50;99.90;;;;;;5094954;28;20237;-61
2023/03/04 00:42:34;;;;;;;12.52;5.72;;;6.50;99.90;;;;;;5094557;28;20649;-61
2023/03/04 00:44:59;;;;;;;15.77;5.72;;;6.50;99.90;;;;;;5094696;28;20234;-61
2023/03/04 00:47:25;;;;;;;12.23;5.30;;;6.50;99.90;;;;;;5094547;28;20212;-61
2023/03/04 00:49:51;;;;;;;12.38;5.57;;;6.50;99.90;;;;;;5094427;28;20169;-61
2023/03/04 00:52:16;;;;;;;11.10;5.80;;;6.60;99.90;;;;;;5094303;28;20208;-61
2023/03/04 00:54:42;;;;;;;11.10;4.72;;;6.60;99.90;;;;;;5093700;28;20177;-62
2023/03/04 00:57:08;;;;;;;13.18;4.90;;;6.60;99.90;;;;;;5094449;28;20210;-61
2023/03/04 00:59:34;;;;;;;12.60;4.80;;;6.50;99.90;;;;;;5094276;28;20216;-61
2023/03/04 01:01:59;;;;;;;14.70;4.22;;;6.60;99.90;;;;;;5094225;28;20204;-61
2023/03/04 01:04:25;;;;;;;14.70;4.82;;;6.60;99.90;;;;;;5093991;28;20166;-61
2023/03/04 01:06:51;;;;;;;13.65;4.15;;;6.40;99.90;;;;;;5093942;28;20178;-61
2023/03/04 01:09:16;;;;;;;10.80;3.60;;;6.40;99.90;;;;;;5094202;28;20180;-61
2023/03/04 01:11:42;;;;;;;13.20;3.85;;;6.40;99.90;;;;;;5094112;28;20268;-61
2023/03/04 01:14:08;;;;;;;14.57;3.92;;;6.30;99.90;;;;;;5094166;28;20201;-61
2023/03/04 01:16:33;;;;;;;12.90;3.83;;;6.30;99.90;;;;;;5094094;28;20687;-61
2023/03/04 01:18:59;;;;;;;13.90;4.38;;;6.30;99.90;;;;;;5093830;28;20174;-61
2023/03/04 01:21:25;;;;;;;13.98;3.88;;;6.40;99.90;;;;;;5093733;28;20166;-61
2023/03/04 01:23:50;;;;;;;12.23;3.80;;;6.40;99.90;;;;;;5093955;28;20272;-61
2023/03/04 01:26:16;;;;;;;14.77;3.90;;;6.40;99.90;;;;;;5093937;28;20514;-61
2023/03/04 01:28:42;;;;;;;10.68;3.60;;;6.40;99.90;;;;;;5093821;28;20224;-61
2023/03/04 01:31:07;;;;;;;10.50;4.05;;;6.40;99.90;;;;;;5093739;28;20563;-61
2023/03/04 01:33:33;;;;;;;11.25;4.18;;;6.40;99.90;;;;;;5093606;28;20223;-61
2023/03/04 01:35:59;;;;;;;12.15;4.13;;;6.50;99.90;;;;;;5093380;28;20675;-61
2023/03/04 01:38:25;;;;;;;15.30;4.53;;;6.40;99.90;;;;;;5093676;28;20190;-61
2023/03/04 01:40:51;;;;;;;15.27;4.40;;;6.40;99.90;;;;;;5093694;28;20178;-61
2023/03/04 01:43:27;;;;;;;14.85;4.13;;;6.50;99.90;;;;;;5093389;28;20690;-61
2023/03/04 01:45:54;;;;;;;11.10;4.20;;;6.50;99.90;;;;;;5093678;28;20173;-61
2023/03/04 01:48:37;;;;;;;11.75;5.00;;;6.50;99.90;;;;;;5093323;28;20195;-61
2023/03/04 01:51:06;;;;;;;11.60;5.10;;;6.50;99.90;;;;;;5093614;28;20209;-61
2023/03/04 01:53:32;;;;;;;14.93;5.07;;;6.50;99.90;;;;;;5093381;28;20170;-61
2023/03/04 01:56:18;;;;;;;17.90;5.60;;;6.40;99.90;;;;;;5093304;28;20623;-61
2023/03/04 01:58:44;;;;;;;11.20;5.00;;;6.40;99.90;;;;;;5093278;28;20176;-61
2023/03/04 02:01:13;;;;;;;13.93;5.43;;;6.40;99.90;;;;;;5093163;28;20199;-61
2023/03/04 02:03:39;;;;;;;13.45;5.72;;;6.40;99.90;;;;;;5093621;28;20176;-61
2023/03/04 02:06:05;;;;;;;13.52;5.07;;;6.40;99.90;;;;;;5093228;28;20540;-61
2023/03/04 02:08:31;;;;;;;13.32;4.95;;;6.40;99.90;;;;;;5093445;28;20170;-62
2023/03/04 02:10:56;;;;;;;13.73;5.30;;;6.40;99.90;;;;;;5093174;28;20667;-61
2023/03/04 02:13:22;;;;;;;14.73;5.57;;;6.40;99.90;;;;;;5093101;28;20254;-61
2023/03/04 02:15:48;;;;;;;14.90;5.25;;;6.50;99.90;;;;;;5092978;28;20650;-61
2023/03/04 02:18:23;;;;;;;11.65;5.32;;;6.50;99.90;;;;;;5093199;28;20217;-61
2023/03/04 02:21:01;;;;;;;12.00;5.65;;;6.40;99.90;;;;;;5093255;28;20166;-61
2023/03/04 02:23:44;;;;;;;11.48;5.00;;;6.40;99.90;;;;;;5092864;28;20267;-61
2023/03/04 02:26:42;;;;;;;11.77;5.43;;;6.30;99.90;;;;;;5093192;28;20192;-61
2023/03/04 02:29:09;;;;;;;13.65;4.90;;;6.40;99.90;;;;;;5092460;28;20212;-61
2023/03/04 02:31:41;;;;;;;15.10;5.90;;;6.30;99.90;;;;;;5093051;28;20179;-61
2023/03/04 02:34:23;;;;;;;15.48;5.28;;;6.30;99.90;;;;;;5092987;28;20249;-62
2023/03/04 02:36:51;;;;;;;17.23;5.50;;;6.30;99.90;;;;;;5093136;28;20567;-61
2023/03/04 02:39:26;;;;;;;16.20;5.75;;;6.40;99.90;;;;;;5093053;28;20173;-61
2023/03/04 02:41:53;;;;;;;17.63;5.60;;;6.40;99.90;;;;;;5093316;28;20169;-61
2023/03/04 02:44:33;;;;;;;16.20;5.50;;;6.30;99.90;;;;;;5092779;28;20566;-61
2023/03/04 02:46:59;;;;;;;17.20;6.45;;;6.30;99.90;;;;;;5092796;28;20211;-61
2023/03/04 02:49:27;;;;;;;14.52;6.03;;;6.30;99.90;;;;;;5092754;28;20255;-61
2023/03/04 02:52:05;;;;;;;14.65;5.95;;;6.30;99.90;;;;;;5093255;28;20177;-61
2023/03/04 02:54:31;;;;;;;15.90;6.72;;;6.30;99.90;;;;;;5092701;28;20258;-61
2023/03/04 02:57:00;;;;;;;17.95;6.63;;;6.30;99.90;;;;;;5091361;28;20293;-61
2023/03/04 02:59:26;;;;;;;15.18;7.15;;;6.30;99.90;;;;;;5092559;28;20636;-61
2023/03/04 03:01:52;;;;;;;15.82;6.65;;;6.30;99.90;;;;;;5092899;28;20181;-61
2023/03/04 03:04:19;;;;;;;11.90;6.55;;;6.30;99.90;;;;;;5092778;28;20170;-61
2023/03/04 03:06:45;;;;;;;15.68;6.60;;;6.40;99.90;;;;;;5092641;28;20545;-61
2023/03/04 03:09:10;;;;;;;14.20;6.78;;;6.30;99.90;;;;;;5092580;28;20185;-61
2023/03/04 03:11:36;;;;;;;11.32;5.80;;;6.30;99.90;;;;;;5092597;28;20180;-61
2023/03/04 03:14:03;;;;;;;13.30;6.10;;;6.20;99.90;;;;;;5092529;28;20241;-61
2023/03/04 03:16:28;;;;;;;17.10;6.32;;;6.20;99.90;;;;;;5093301;28;20679;-60
2023/03/04 03:18:54;;;;;;;17.17;6.57;;;6.10;99.90;;;;;;5096304;28;20177;-61
2023/03/04 03:21:20;;;;;;;12.25;5.88;;;6.20;99.90;;;;;;5096030;28;20189;-61
2023/03/04 03:23:46;;;;;;;13.80;6.47;;;6.30;99.90;;;;;;5096053;28;20265;-61
2023/03/04 03:26:11;;;;;;;12.68;7.10;;;6.30;99.90;;;;;;5095997;28;20235;-61
2023/03/04 03:28:37;;;;;;;16.77;7.28;;;6.30;99.90;;;;;;5095964;28;20193;-61
2023/03/04 03:31:03;;;;;;;16.40;6.72;;;6.30;99.90;;;;;;5096033;28;20181;-61
2023/03/04 03:33:28;;;;;;;16.15;6.85;;;6.30;99.90;;;;;;5095976;28;20173;-61
2023/03/04 03:35:54;;;;;;;18.67;6.07;;;6.20;99.90;;;;;;5095902;28;20256;-62
2023/03/04 03:38:20;;;;;;;12.52;6.10;;;6.30;99.90;;;;;;5095821;28;20263;-61
2023/03/04 03:40:45;;;;;;;15.30;5.95;;;6.20;99.90;;;;;;5095768;28;20177;-61
2023/03/04 03:43:11;;;;;;;14.57;6.38;;;6.20;99.90;;;;;;5095632;28;20188;-59
2023/03/04 03:45:37;;;;;;;17.83;6.47;;;6.10;99.90;;;;;;5095550;28;20173;-61
2023/03/04 03:48:03;;;;;;;14.02;6.15;;;6.10;99.90;;;;;;5095778;28;20174;-61
2023/03/04 03:50:29;;;;;;;16.88;6.57;;;6.20;99.90;;;;;;5095671;28;20172;-61
2023/03/04 03:52:55;;;;;;;12.73;6.63;;;6.20;99.90;;;;;;5095574;28;20236;-61
2023/03/04 03:55:21;;;;;;;17.85;7.35;;;6.30;99.90;;;;;;5095481;28;20177;-62
2023/03/04 03:57:46;;;;;;;14.35;6.88;;;6.20;99.90;;;;;;5095225;28;20247;-61
2023/03/04 04:00:13;;;;;;;10.48;6.55;;;6.30;99.90;;;;;;5095608;28;20188;-61
2023/03/04 04:02:39;;;;;;;11.25;6.72;;;6.30;99.90;;;;;;5095447;28;20177;-62
2023/03/04 04:05:07;;;;;;;17.17;7.90;;;6.30;99.90;;;;;;5095377;28;20181;-61
2023/03/04 04:07:33;;;;;;;12.70;6.90;;;6.40;99.90;;;;;;5095169;28;20184;-61
2023/03/04 04:09:59;;;;;;;14.35;7.22;;;6.40;99.90;;;;;;5095253;28;20188;-61
2023/03/04 04:12:25;;;;;;;14.93;6.45;;;6.40;99.90;;;;;;5093917;28;20181;-61
2023/03/04 04:14:50;;;;;;;18.20;6.70;;;6.40;99.90;;;;;;5095369;28;20269;-61
2023/03/04 04:17:16;;;;;;;14.82;6.43;;;6.30;99.90;;;;;;5094921;28;20258;-61
2023/03/04 04:19:42;;;;;;;17.52;5.90;;;6.30;99.90;;;;;;5095176;28;20177;-61
2023/03/04 04:22:13;;;;;;;15.90;6.68;;;6.30;99.90;;;;;;5094880;28;20236;-61
2023/03/04 04:24:39;;;;;;;15.55;6.63;;;6.30;99.90;;;;;;5094967;28;20184;-61
2023/03/04 04:27:04;;;;;;;14.27;5.85;;;6.30;99.90;;;;;;5094785;28;20181;-61
2023/03/04 04:29:30;;;;;;;13.07;6.75;;;6.40;99.90;;;;;;5093818;28;20177;-61
2023/03/04 04:31:56;;;;;;;11.98;5.85;;;6.40;99.90;;;;;;5094792;28;20177;-61
2023/03/04 04:34:22;;;;;;;12.93;6.68;;;6.40;99.90;;;;;;5094804;28;20177;-61
2023/03/04 04:36:48;;;;;;;18.27;6.30;;;6.50;99.90;;;;;;5094321;28;20339;-61
2023/03/04 04:39:13;;;;;;;14.93;6.10;;;6.40;99.90;;;;;;5094632;28;20231;-61
2023/03/04 04:41:42;;;;;;;12.32;5.65;;;6.30;99.90;;;;;;5094469;28;20182;-59
2023/03/04 04:44:09;;;;;;;12.48;5.60;;;6.30;99.90;;;;;;5094510;28;20519;-61
2023/03/04 04:46:35;;;;;;;13.38;5.32;;;6.30;99.90;;;;;;5094558;28;20181;-61
2023/03/04 04:49:02;;;;;;;11.63;4.72;;;6.30;99.90;;;;;;5094609;28;20182;-61
2023/03/04 04:51:28;;;;;;;14.23;5.30;;;6.20;99.90;;;;;;5094468;28;20177;-61
2023/03/04 04:53:54;;;;;;;14.27;4.70;;;6.20;99.90;;;;;;5094629;28;20185;-60
2023/03/04 04:56:25;;;;;;;9.77;4.20;;;6.10;99.90;;;;;;5094143;28;20647;-61
2023/03/04 04:58:51;;;;;;;12.88;4.20;;;6.10;99.90;;;;;;5094456;28;20233;-61
2023/03/04 05:01:17;;;;;;;12.93;4.47;;;6.00;99.90;;;;;;5094277;28;20188;-61
2023/03/04 05:03:43;;;;;;;10.85;4.32;;;6.10;99.90;;;;;;5094075;28;20664;-61
2023/03/04 05:06:09;;;;;;;9.40;5.00;;;6.10;99.90;;;;;;5094133;28;20643;-61
2023/03/04 05:08:35;;;;;;;9.82;4.97;;;6.10;99.90;;;;;;5094042;28;20259;-61
2023/03/04 05:11:03;;;;;;;6.47;4.03;;;6.00;99.90;;;;;;5093961;28;20173;-60
2023/03/04 05:13:28;;;;;;;10.07;4.60;;;6.00;99.90;;;;;;5092831;28;20192;-61
2023/03/04 05:15:55;;;;;;;11.88;5.25;;;6.10;99.90;;;;;;5094043;28;20173;-61
2023/03/04 05:18:22;;;;;;;10.32;3.72;;;6.10;99.90;;;;;;5094029;28;20227;-61
2023/03/04 05:20:59;;;;;;;12.57;4.30;;;6.10;99.90;;;;;;5093935;28;20182;-61
2023/03/04 05:23:26;;;;;;;12.05;3.90;;;6.20;99.90;;;;;;5093611;28;20250;-61
2023/03/04 05:25:52;;;;;;;14.85;3.88;;;6.10;99.90;;;;;;5092793;28;20176;-61
2023/03/04 05:28:18;;;;;;;8.38;3.42;;;6.00;99.90;;;;;;5093669;28;20686;-61
2023/03/04 05:30:45;;;;;;;12.30;3.08;;;6.10;99.90;;;;;;5094070;28;20181;-61
2023/03/04 05:33:12;;;;;;;8.30;2.53;;;6.10;99.90;;;;;;5093696;28;20228;-61
2023/03/04 05:35:39;;;;;;;10.05;3.17;;;6.00;99.90;;;;;;5093621;28;20169;-61
2023/03/04 05:38:08;;;;;;;10.52;3.25;;;6.00;99.90;;;;;;5093385;28;20571;-61
2023/03/04 05:40:34;;;;;;;12.55;3.30;;;6.00;99.90;;;;;;5093431;28;20220;-61
2023/03/04 05:43:00;;;;;;;9.30;3.33;;;6.20;99.90;;;;;;5093537;28;20627;-61
2023/03/04 05:45:26;;;;;;;12.73;3.40;;;6.20;99.90;;;;;;5092341;28;20227;-61
2023/03/04 05:47:53;;;;;;;10.75;3.20;;;6.20;99.90;;;;;;5093552;28;20261;-60
2023/03/04 05:50:20;;;;;;;11.10;3.45;;;6.10;99.90;;;;;;5093351;28;20169;-62
2023/03/04 05:52:45;;;;;;;14.52;3.60;;;6.10;99.90;;;;;;5093321;28;20260;-61
2023/03/04 05:55:11;;;;;;;11.63;3.67;;;6.10;99.90;;;;;;5093538;28;20177;-61
2023/03/04 05:57:37;;;;;;;13.07;3.58;;;6.10;99.90;;;;;;5093376;28;20214;-61
2023/03/04 06:00:08;;;;;;;14.18;3.33;;;6.00;99.90;;;;;;5093265;28;20184;-61
2023/03/04 06:02:34;;;;;;;10.05;3.28;;;6.10;99.90;;;;;;5093263;28;20173;-61
2023/03/04 06:05:00;;;;;;;12.52;3.70;;;6.00;99.90;;;;;;5093381;28;20173;-60
2023/03/04 06:07:25;;;;;;;9.25;3.65;;;6.10;99.90;;;;;;5093663;28;20339;-60
2023/03/04 06:09:51;;;;;;;10.23;3.97;;;6.10;99.90;;;;;;5093365;28;20746;-60
2023/03/04 06:12:17;;;;;;;13.65;4.07;;;6.10;99.90;;;;;;5093376;28;20184;-60
2023/03/04 06:14:42;;;;;;;13.60;4.35;;;6.10;99.90;;;;;;5093243;28;20178;-60
2023/03/04 06:17:08;;;;;;;13.23;4.57;;;6.10;99.90;;;;;;5093017;28;20206;-60
2023/03/04 06:19:33;;;;;;;11.00;3.95;;;6.10;99.90;;;;;;5093046;28;20223;-60
2023/03/04 06:21:59;;;;;;;11.27;4.03;;;6.00;99.90;;;;;;5092760;28;20229;-60
2023/03/04 06:24:27;;;;;;;12.80;4.82;;;6.10;99.90;;;;;;5093062;28;20174;-60
2023/03/04 06:26:52;;;;;;;12.10;3.72;;;6.00;99.90;;;;;;5093017;28;20188;-60
2023/03/04 06:29:18;;;;;;;10.73;3.28;;;6.10;99.90;;;;;;5093040;28;20192;-61
2023/03/04 06:31:44;;;;;;;8.32;3.10;;;6.10;99.90;;;;;;5092387;28;20205;-60
2023/03/04 06:34:09;;;;;;;11.65;3.10;;;6.10;99.90;;;;;;5092819;28;20226;-60
2023/03/04 06:36:35;;;;;;;10.20;3.13;;;6.00;99.90;;;;;;5092722;28;20245;-59
2023/03/04 06:39:06;;;;;;;8.77;3.30;;;6.20;99.90;;;;;;5092952;28;20177;-60
2023/03/04 06:41:32;;;;;;;10.13;3.40;;;6.10;99.90;;;;;;5092805;28;20201;-60
2023/03/04 06:43:58;;;;;;;10.23;3.15;;;6.10;99.90;;;;;;5092816;28;20177;-60
2023/03/04 06:46:24;;;;;;;8.25;3.00;;;6.20;99.90;;;;;;5092790;28;20651;-59
2023/03/04 06:48:50;;;;;;;10.45;3.03;;;6.10;99.90;;;;;;5092721;28;20181;-60
2023/03/04 06:51:16;;;;;;;8.43;2.67;;;6.10;99.90;;;;;;5093247;28;20666;-59
2023/03/04 06:53:42;;;;;;;11.95;2.97;;;6.10;99.90;;;;;;5095417;28;20238;-59
2023/03/04 06:56:09;;;;;;;11.13;3.47;;;6.10;99.90;;;;;;5096593;28;20689;-60
2023/03/04 06:58:35;;;;;;;7.68;2.90;;;6.20;99.90;;;;;;5096482;28;20264;-60
2023/03/04 07:01:11;;;;;;;8.43;3.17;;;6.20;99.90;;;;;;5096459;28;20222;-60
2023/03/04 07:03:36;;;;;;;7.47;2.63;;;6.20;99.90;;;;;;5096229;28;20274;-60
2023/03/04 07:06:02;;;;;;;11.95;3.17;;;6.10;99.90;;;;;;5096535;28;20303;-60
2023/03/04 07:08:28;;;;;;;14.27;3.17;;;6.20;99.90;;;;;;5094461;28;20681;-60
2023/03/04 07:10:54;;;;;;;9.57;2.90;;;6.10;99.90;;;;;;5096071;28;20185;-59
2023/03/04 07:13:19;;;;;;;10.00;3.35;;;6.10;99.90;;;;;;5095599;28;20182;-60
2023/03/04 07:15:45;;;;;;;9.30;3.00;;;6.20;99.90;;;;;;5095306;28;20215;-60
2023/03/04 07:18:11;;;;;;;14.13;3.65;;;6.10;99.90;;;;;;5095743;28;20575;-59
2023/03/04 07:20:36;;;;;;;9.93;3.00;;;6.20;99.90;;;;;;5095858;28;20298;-60
2023/03/04 07:23:02;;;;;;;8.70;3.25;;;6.20;99.90;;;;;;5094031;28;20639;-61
2023/03/04 07:25:28;;;;;;;15.20;3.60;;;6.30;99.90;;;;;;5094805;28;20184;-59
2023/03/04 07:27:55;;;;;;;15.05;3.53;;;6.30;99.90;;;;;;5093880;28;20212;-60
2023/03/04 07:30:21;;;;;;;8.45;2.80;;;6.30;99.90;;;;;;5094604;28;20171;-60
2023/03/04 07:32:46;;;;;;;10.18;3.20;;;6.40;99.90;;;;;;5095587;28;20655;-60
2023/03/04 07:35:12;;;;;;;8.65;2.97;;;6.30;99.90;;;;;;5095794;28;20256;-59
2023/03/04 07:37:39;;;;;;;10.63;3.72;;;6.30;99.90;;;;;;5095788;28;20217;-59
2023/03/04 07:40:07;;;;;;;10.27;4.00;;;6.20;99.90;;;;;;5095592;28;20186;-59
2023/03/04 07:42:33;;;;;;;7.25;3.22;;;6.20;99.90;;;;;;5095324;28;20174;-59
2023/03/04 07:45:00;;;;;;;9.25;3.80;;;6.20;99.90;;;;;;5095341;28;20188;-59
2023/03/04 07:47:26;;;;;;;7.80;3.30;;;6.30;99.90;;;;;;5095326;28;20177;-59
2023/03/04 07:49:52;;;;;;;6.22;2.92;;;6.20;99.90;;;;;;5104087;28;20178;-59
2023/03/04 07:52:18;;;;;;;7.68;3.35;;;6.30;99.90;;;;;;5115924;28;20223;-59
2023/03/04 07:54:44;;;;;;;6.70;3.50;;;6.30;99.90;;;;;;5115951;28;20173;-60
2023/03/04 07:57:09;;;;;;;10.00;3.80;;;6.30;99.90;;;;;;5115911;27;20571;-59
2023/03/04 07:59:35;;;;;;;8.93;3.45;;;6.30;99.90;;;;;;5115729;28;20547;-60
2023/03/04 08:02:01;;;;;;;8.55;3.45;;;6.30;99.90;;;;;;5115512;28;20238;-59
2023/03/04 08:04:26;;;;;;;10.80;3.22;;;6.30;99.90;;;;;;5115639;28;20179;-59
2023/03/04 08:06:52;;;;;;;11.68;3.72;;;6.30;99.90;;;;;;5115782;28;20712;-59
2023/03/04 08:09:18;;;;;;;12.75;3.83;;;6.30;99.90;;;;;;5115591;28;20581;-59
2023/03/04 08:11:44;;;;;;;8.75;4.00;;;6.30;99.90;;;;;;5115612;28;20527;-60
2023/03/04 08:14:12;;;;;;;9.65;3.97;;;6.30;99.90;;;;;;5115638;28;20173;-59
2023/03/04 08:16:38;;;;;;;11.38;4.13;;;6.40;99.90;;;;;;5115452;28;20211;-59
2023/03/04 08:19:05;;;;;;;10.48;4.30;;;6.40;99.90;;;;;;5115550;28;20218;-59
2023/03/04 08:21:31;;;;;;;9.32;4.80;;;6.50;99.90;;;;;;5115278;28;20179;-60
2023/03/04 08:24:06;;;;;;;10.18;5.38;;;6.40;99.90;;;;;;5115530;28;20234;-59
2023/03/04 08:26:37;;;;;;;10.55;5.57;;;6.30;99.90;;;;;;5115447;28;20179;-59
2023/03/04 08:29:04;;;;;;;10.10;5.93;;;6.30;99.90;;;;;;5115135;28;20561;-59
2023/03/04 08:31:30;;;;;;;8.73;5.60;;;6.30;99.90;;;;;;5115702;28;20212;-59
2023/03/04 08:33:55;;;;;;;10.75;5.30;;;6.40;99.90;;;;;;5115010;28;20185;-60
2023/03/04 08:36:21;;;;;;;12.80;5.38;;;6.50;99.90;;;;;;5115188;28;20214;-59
2023/03/04 08:38:47;;;;;;;11.70;5.85;;;6.50;99.90;;;;;;5115054;28;20176;-59
2023/03/04 08:41:14;;;;;;;11.27;5.03;;;6.50;99.90;;;;;;5115116;28;20173;-59
2023/03/04 08:43:40;;;;;;;8.80;4.85;;;6.50;99.90;;;;;;5114774;27;20178;-59
2023/03/04 08:46:05;;;;;;;11.27;5.25;;;6.40;99.90;;;;;;5115059;28;20165;-59
2023/03/04 08:48:32;;;;;;;7.85;4.30;;;6.40;99.90;;;;;;5114908;28;20707;-60
2023/03/04 08:50:57;;;;;;;10.80;4.65;;;6.40;99.90;;;;;;5114758;28;20618;-59
2023/03/04 08:53:24;;;;;;;8.23;3.90;;;6.50;99.90;;;;;;5114941;28;20194;-59
2023/03/04 08:55:51;;;;;;;8.85;3.90;;;6.60;99.90;;;;;;5114735;28;20193;-59
2023/03/04 08:58:17;;;;;;;9.25;3.75;;;6.60;99.90;;;;;;5114421;28;20276;-59
2023/03/04 09:00:47;;;;;;;8.95;3.60;;;6.50;99.90;;;;;;5115052;28;20211;-59
2023/03/04 09:03:13;;;;;;;10.38;3.90;;;6.60;99.90;;;;;;5114673;28;20210;-59
2023/03/04 09:05:39;;;;;;;7.45;4.00;;;6.60;99.90;;;;;;5114769;28;20576;-59
2023/03/04 09:08:06;;;;;;;8.30;3.70;;;6.70;99.90;;;;;;5114489;28;20177;-59
2023/03/04 09:10:31;;;;;;;6.78;3.70;;;6.70;99.90;;;;;;5114382;28;20262;-59
2023/03/04 09:12:57;;;;;;;9.18;3.55;;;6.70;99.90;;;;;;5114335;28;20177;-60
2023/03/04 09:15:23;;;;;;;7.93;3.58;;;6.80;99.90;;;;;;5113885;28;20177;-62
2023/03/04 09:17:48;;;;;;;9.00;3.92;;;6.90;99.90;;;;;;5114057;28;20212;-60
2023/03/04 09:20:14;;;;;;;6.55;3.65;;;6.80;99.90;;;;;;5114360;28;20179;-61
2023/03/04 09:22:41;;;;;;;10.15;3.72;;;6.90;99.90;;;;;;5114272;28;20311;-60
2023/03/04 09:25:07;;;;;;;11.07;3.85;;;6.90;99.90;;;;;;5114097;28;20181;-61
2023/03/04 09:27:33;;;;;;;9.20;4.00;;;6.80;99.90;;;;;;5114333;28;20169;-60
2023/03/04 09:29:59;;;;;;;10.73;4.22;;;6.80;99.90;;;;;;5114464;28;20526;-60
2023/03/04 09:32:24;;;;;;;10.70;4.32;;;6.80;99.90;;;;;;5114128;28;20226;-60
2023/03/04 09:34:50;;;;;;;8.48;4.20;;;6.90;99.90;;;;;;5114103;28;20170;-60
2023/03/04 09:37:16;;;;;;;9.05;3.88;;;6.90;99.90;;;;;;5113789;28;20208;-60
2023/03/04 09:39:41;;;;;;;13.43;5.15;;;7.00;99.90;;;;;;5113801;28;20172;-61
2023/03/04 09:42:16;;;;;;;8.88;4.22;;;7.20;99.90;;;;;;5114225;28;20199;-60
2023/03/04 09:44:45;;;;;;;7.80;4.20;;;7.40;99.90;;;;;;5114110;28;20165;-60
2023/03/04 09:47:16;;;;;;;10.68;3.75;;;7.50;99.90;;;;;;5112724;28;20594;-60
2023/03/04 09:49:47;;;;;;;9.35;4.18;;;7.60;99.90;;;;;;5113744;28;20173;-60
2023/03/04 09:52:57;;;;;;;9.93;4.03;;;7.60;99.90;;;;;;5113604;28;20183;-61
2023/03/04 09:55:34;;;;;;;11.65;4.53;;;7.60;99.90;;;;;;5114007;28;20238;-60
2023/03/04 09:58:18;;;;;;;8.98;3.40;;;7.60;99.90;;;;;;5113598;28;20208;-60
2023/03/04 10:00:55;;;;;;;8.88;4.10;;;7.50;99.90;;;;;;5113569;28;20173;-61
2023/03/04 10:03:31;;;;;;;8.10;3.80;;;7.60;99.90;;;;;;5113892;28;20196;-60
2023/03/04 10:06:06;;;;;;;9.68;3.70;;;7.60;99.90;;;;;;5113738;28;20169;-60
2023/03/04 10:09:02;;;;;;;10.98;4.28;;;7.60;99.90;;;;;;5113584;28;20237;-60
2023/03/04 10:11:48;;;;;;;10.43;3.28;;;7.50;99.90;;;;;;5113741;28;20630;-60
2023/03/04 10:14:51;;;;;;;8.07;3.20;;;7.40;99.90;;;;;;5113612;28;20688;-60
2023/03/04 10:17:37;;;;;;;10.25;3.05;;;7.50;99.90;;;;;;5113423;28;20201;-60
2023/03/04 10:20:05;;;;;;;8.27;3.20;;;7.40;99.90;;;;;;5113420;28;20568;-60
2023/03/04 10:22:47;;;;;;;9.02;3.33;;;7.40;99.90;;;;;;5113166;28;20278;-61
2023/03/04 10:25:18;;;;;;;11.90;3.67;;;7.60;99.90;;;;;;5113769;28;20627;-60
2023/03/04 10:27:48;;;;;;;7.45;3.25;;;7.60;99.90;;;;;;5117509;28;20168;-60
2023/03/04 10:30:41;;;;;;;9.93;4.13;;;7.70;99.90;;;;;;5117453;28;20253;-60
2023/03/04 10:33:21;;;;;;;8.38;2.95;;;7.80;99.90;;;;;;5117565;28;20248;-61
2023/03/04 10:35:57;;;;;;;9.43;3.60;;;7.60;99.90;;;;;;5100362;28;20176;-60
2023/03/04 10:38:23;;;;;;;12.68;3.13;;;7.60;99.90;;;;;;5096239;28;20174;-60
2023/03/04 10:40:49;;;;;;;10.52;3.05;;;7.70;99.90;;;;;;5096969;28;20712;-60
2023/03/04 10:43:20;;;;;;;7.97;2.92;;;7.90;99.90;;;;;;5096981;28;20247;-60
2023/03/04 10:45:47;;;;;;;7.72;2.72;;;8.00;99.90;;;;;;5096925;28;20215;-60
2023/03/04 10:48:27;;;;;;;7.78;2.78;;;8.10;99.90;;;;;;5096315;28;20178;-60
2023/03/04 10:51:09;;;;;;;10.88;3.53;;;8.20;99.90;;;;;;5096585;28;20196;-60
2023/03/04 10:53:39;;;;;;;6.53;2.78;;;8.20;99.90;;;;;;5097131;28;20170;-60
2023/03/04 10:56:34;;;;;;;6.43;2.42;;;8.20;99.90;;;;;;5096435;28;20214;-60
2023/03/04 10:59:36;;;;;;;6.30;2.50;;;8.30;99.90;;;;;;5094805;28;20548;-61
2023/03/04 11:02:13;;;;;;;5.57;2.20;;;8.30;99.90;;;;;;5095278;28;20516;-60
2023/03/04 11:04:39;;;;;;;4.45;2.00;;;8.30;99.90;;;;;;5096365;28;20746;-60
2023/03/04 11:07:10;;;;;;;6.18;2.00;;;8.50;99.90;;;;;;5096332;28;20264;-60
2023/03/04 11:09:36;;;;;;;7.18;2.08;;;8.40;99.90;;;;;;5096332;28;20174;-60
2023/03/04 11:12:12;;;;;;;4.43;1.90;;;8.50;99.90;;;;;;5096475;28;20169;-60
2023/03/04 11:14:47;;;;;;;6.60;2.30;;;8.50;99.90;;;;;;5096373;28;20264;-60
2023/03/04 11:17:23;;;;;;;4.50;2.03;;;8.50;99.90;;;;;;5096346;28;20208;-60
2023/03/04 11:20:02;;;;;;;6.63;2.60;;;8.50;99.90;;;;;;5096135;28;20658;-60
2023/03/04 11:22:30;;;;;;;4.75;2.05;;;8.50;99.90;;;;;;5096070;28;20217;-58
2023/03/04 11:25:06;;;;;;;5.47;2.20;;;8.30;99.90;;;;;;5096592;28;20253;-60
2023/03/04 11:27:44;;;;;;;4.68;2.20;;;8.20;99.90;;;;;;5096229;28;20162;-57
2023/03/04 11:31:01;;;;;;;5.78;2.40;;;8.20;99.90;;;;;;5096015;28;20166;-59
2023/03/04 11:33:41;;;;;;;5.82;2.40;;;8.30;99.90;;;;;;5090883;28;20615;-60
2023/03/04 11:36:18;;;;;;;8.43;2.58;;;8.40;99.90;;;;;;5095879;28;20205;-60
2023/03/04 11:38:50;;;;;;;6.20;2.42;;;8.70;99.90;;;;;;5095046;28;20173;-60
2023/03/04 11:41:31;;;;;;;6.40;2.40;;;8.70;99.90;;;;;;5096064;28;20253;-60
2023/03/04 11:43:58;;;;;;;5.50;2.33;;;8.80;99.90;;;;;;5095883;28;20173;-60
2023/03/04 11:46:57;;;;;;;6.88;2.58;;;8.50;99.90;;;;;;5094544;28;20637;-59
2023/03/04 11:49:46;;;;;;;6.45;2.30;;;8.70;99.90;;;;;;5095563;28;20178;-60
2023/03/04 11:52:32;;;;;;;5.78;2.05;;;8.70;99.90;;;;;;5095766;28;20190;-60
2023/03/04 11:55:07;;;;;;;4.47;1.88;;;8.90;99.90;;;;;;5094592;28;20662;-58
2023/03/04 11:57:35;;;;;;;14.52;9.40;;;8.70;99.90;;;;;;5095572;28;20194;-60
2023/03/04 12:00:25;;;;;;;3.22;2.05;;;8.60;99.90;;;;;;5095493;28;20513;-59
2023/03/04 12:03:10;;;;;;;2.03;1.35;;;8.50;99.90;;;;;;5095334;28;20693;-59
2023/03/04 12:06:07;;;;;;;3.00;1.55;;;8.40;99.90;;;;;;5094046;28;20183;-59
2023/03/04 12:09:00;;;;;;;3.35;1.30;;;8.60;99.90;;;;;;5095451;28;20162;-59
2023/03/04 12:11:39;;;;;;;1.65;1.15;;;8.80;99.90;;;;;;5095523;28;20197;-60
2023/03/04 12:14:08;;;;;;;2.42;1.20;;;8.90;99.90;;;;;;5095195;28;20184;-59
2023/03/04 12:17:00;;;;;;;1.77;1.00;;;9.00;99.90;;;;;;5095254;28;20305;-59
2023/03/04 12:19:47;;;;;;;3.17;1.40;;;9.00;99.90;;;;;;5095340;28;20249;-59
2023/03/04 12:22:33;;;;;;;1.63;1.30;;;9.00;99.90;;;;;;5095157;28;20221;-59
2023/03/04 12:25:27;;;;;;;2.55;1.50;;;8.90;99.90;;;;;;5095022;28;20173;-59
2023/03/04 12:28:01;;;;;;;2.70;1.23;;;9.00;99.90;;;;;;5093849;28;20582;-59
2023/03/04 12:31:12;;;;;;;1.90;1.40;;;9.00;99.90;;;;;;5094885;28;20222;-59
2023/03/04 12:33:56;;;;;;;1.95;1.15;;;9.00;99.90;;;;;;5077448;28;20182;-59
2023/03/04 12:36:44;;;;;;;2.15;1.45;;;8.80;99.90;;;;;;5094872;28;20228;-59
2023/03/04 12:39:28;;;;;;;2.85;1.15;;;8.90;99.90;;;;;;5094639;28;20174;-59
2023/03/04 12:42:20;;;;;;;2.30;1.10;;;8.90;99.90;;;;;;5095028;28;20170;-59
2023/03/04 12:45:06;;;;;;;1.50;1.00;;;9.10;99.90;;;;;;5094677;28;20180;-59
2023/03/04 12:47:52;;;;;;;2.30;1.20;;;9.30;99.90;;;;;;5094542;28;20267;-59
2023/03/04 12:50:27;;;;;;;1.60;0.98;;;9.40;99.90;;;;;;5093542;28;20174;-59
2023/03/04 12:53:24;;;;;;;2.85;1.02;;;9.30;99.90;;;;;;5094446;28;20169;-59
2023/03/04 12:55:54;;;;;;;1.60;1.40;;;9.70;99.90;;;;;;5094253;28;20528;-59
2023/03/04 12:58:27;;;;;;;2.58;1.50;;;10.00;99.90;;;;;;5094418;28;20201;-58
2023/03/04 13:01:02;;;;;;;1.50;1.40;;;10.00;99.90;;;;;;5094491;28;20650;-59
2023/03/04 13:03:54;;;;;;;2.03;1.50;;;10.10;99.90;;;;;;5094501;28;20252;-59
2023/03/04 13:06:53;;;;;;;1.50;1.40;;;9.80;99.90;;;;;;5094178;28;20209;-59